createdAt,value
2022-09-15T00:00:56.812Z,0.80
2022-09-15T00:03:24.254Z,0.80
2022-09-15T00:05:53.851Z,0.88
2022-09-15T00:08:21.303Z,0.80
2022-09-15T00:10:53.969Z,1.00
2022-09-15T00:13:22.179Z,1.00
2022-09-15T00:15:49.091Z,0.80
2022-09-15T00:18:15.865Z,0.60
2022-09-15T00:20:44.348Z,0.68
2022-09-15T00:23:13.514Z,0.80
2022-09-15T00:25:46.190Z,0.90
2022-09-15T00:28:14.208Z,0.63
2022-09-15T00:30:43.647Z,0.65
2022-09-15T00:33:12.433Z,0.70
2022-09-15T00:35:40.362Z,0.90
2022-09-15T00:38:08.353Z,0.77
2022-09-15T00:40:44.440Z,0.70
2022-09-15T00:43:11.966Z,0.85
2022-09-15T00:45:39.208Z,1.05
2022-09-15T00:48:08.185Z,0.93
2022-09-15T00:50:37.726Z,0.80
2022-09-15T00:53:08.830Z,0.60
2022-09-15T00:55:48.571Z,0.85
2022-09-15T00:58:22.104Z,0.60
2022-09-15T01:00:55.549Z,1.30
2022-09-15T01:03:24.805Z,0.85
2022-09-15T01:05:56.505Z,0.77
2022-09-15T01:08:30.528Z,0.77
2022-09-15T01:10:57.592Z,1.10
2022-09-15T01:13:24.454Z,0.80
2022-09-15T01:16:13.794Z,0.80
2022-09-15T01:19:09.998Z,0.77
2022-09-15T01:21:50.733Z,0.75
2022-09-15T01:24:26.153Z,0.80
2022-09-15T01:27:13.686Z,0.50
2022-09-15T01:30:03.503Z,0.40
2022-09-15T01:33:04.031Z,0.95
2022-09-15T01:35:34.005Z,0.82
2022-09-15T01:38:27.076Z,0.70
2022-09-15T01:41:18.259Z,0.88
2022-09-15T01:43:55.231Z,0.90
2022-09-15T01:46:25.616Z,0.73
2022-09-15T01:48:55.329Z,1.10
2022-09-15T01:51:23.874Z,0.75
2022-09-15T01:53:52.869Z,0.82
2022-09-15T01:56:19.726Z,0.68
2022-09-15T01:58:50.941Z,0.65
2022-09-15T02:01:29.717Z,0.80
2022-09-15T02:04:10.692Z,0.73
2022-09-15T02:06:57.740Z,0.70
2022-09-15T02:09:46.986Z,0.70
2022-09-15T02:12:19.954Z,0.98
2022-09-15T02:14:52.648Z,0.70
2022-09-15T02:17:20.625Z,1.10
2022-09-15T02:19:53.649Z,0.60
2022-09-15T02:22:28.761Z,0.60
2022-09-15T02:25:10.190Z,1.13
2022-09-15T02:27:46.067Z,0.55
2022-09-15T02:30:15.823Z,0.80
2022-09-15T02:32:51.444Z,0.65
2022-09-15T02:35:18.600Z,0.60
2022-09-15T02:37:46.684Z,0.80
2022-09-15T02:40:13.616Z,1.00
2022-09-15T02:42:42.463Z,1.08
2022-09-15T02:45:09.668Z,0.93
2022-09-15T02:47:36.392Z,0.68
2022-09-15T02:50:03.530Z,0.90
2022-09-15T02:52:30.246Z,1.00
2022-09-15T02:54:57.371Z,1.15
2022-09-15T02:57:24.497Z,1.00
2022-09-15T03:00:10.042Z,1.00
2022-09-15T03:02:36.946Z,0.98
2022-09-15T03:05:03.970Z,1.73
2022-09-15T03:07:31.941Z,0.90
2022-09-15T03:09:59.009Z,0.82
2022-09-15T03:12:26.482Z,1.10
2022-09-15T03:14:53.215Z,1.05
2022-09-15T03:17:20.355Z,0.73
2022-09-15T03:19:47.080Z,0.88
2022-09-15T03:22:13.797Z,0.90
2022-09-15T03:24:42.413Z,0.90
2022-09-15T03:27:09.628Z,0.68
2022-09-15T03:29:36.379Z,1.00
2022-09-15T03:32:03.113Z,0.82
2022-09-15T03:34:29.789Z,0.85
2022-09-15T03:36:56.481Z,0.90
2022-09-15T03:39:23.246Z,0.85
2022-09-15T03:41:49.955Z,1.20
2022-09-15T03:44:16.634Z,0.90
2022-09-15T03:46:43.442Z,1.40
2022-09-15T03:49:10.202Z,0.80
2022-09-15T03:51:37.342Z,1.10
2022-09-15T03:54:04.210Z,1.48
2022-09-15T03:56:32.682Z,1.40
2022-09-15T03:59:01.761Z,1.60
2022-09-15T04:01:30.333Z,1.50
2022-09-15T04:03:57.922Z,1.63
2022-09-15T04:06:25.881Z,1.15
2022-09-15T04:08:53.645Z,1.10
2022-09-15T04:11:22.751Z,1.30
2022-09-15T04:13:50.228Z,0.90
2022-09-15T04:16:19.822Z,1.00
2022-09-15T04:18:46.904Z,1.00
2022-09-15T04:21:16.758Z,0.90
2022-09-15T04:23:44.296Z,1.50
2022-09-15T04:26:21.872Z,1.20
2022-09-15T04:28:49.050Z,0.98
2022-09-15T04:31:17.545Z,1.50
2022-09-15T04:33:45.330Z,1.10
2022-09-15T04:36:15.860Z,1.13
2022-09-15T04:38:43.205Z,1.13
2022-09-15T04:41:11.390Z,1.27
2022-09-15T04:43:38.452Z,1.38
2022-09-15T04:46:05.725Z,1.45
2022-09-15T04:48:32.793Z,1.00
2022-09-15T04:51:08.116Z,1.10
2022-09-15T04:53:35.844Z,1.83
2022-09-15T04:56:13.986Z,0.95
2022-09-15T04:59:00.906Z,0.95
2022-09-15T05:01:33.737Z,1.05
2022-09-15T05:04:04.016Z,1.33
2022-09-15T05:06:32.219Z,1.05
2022-09-15T05:08:59.421Z,1.15
2022-09-15T05:11:28.239Z,1.27
2022-09-15T05:13:55.241Z,0.88
2022-09-15T05:16:27.238Z,1.02
2022-09-15T05:18:57.240Z,1.20
2022-09-15T05:21:24.713Z,1.67
2022-09-15T05:23:52.786Z,1.65
2022-09-15T05:26:25.421Z,1.33
2022-09-15T05:28:52.614Z,1.85
2022-09-15T05:31:20.542Z,1.48
2022-09-15T05:33:48.899Z,1.38
2022-09-15T05:36:17.446Z,1.70
2022-09-15T05:38:45.074Z,1.50
2022-09-15T05:41:16.142Z,1.90
2022-09-15T05:43:43.506Z,1.60
2022-09-15T05:46:10.963Z,1.38
2022-09-15T05:48:37.925Z,1.88
2022-09-15T05:51:05.110Z,1.63
2022-09-15T05:53:34.735Z,1.52
2022-09-15T05:56:04.649Z,1.63
2022-09-15T05:58:32.017Z,3.40
2022-09-15T06:01:05.552Z,1.88
2022-09-15T06:03:32.592Z,1.98
2022-09-15T06:06:00.384Z,2.22
2022-09-15T06:08:32.201Z,1.35
2022-09-15T06:11:13.798Z,2.45
2022-09-15T06:13:40.530Z,2.60
2022-09-15T06:16:13.257Z,2.67
2022-09-15T06:18:41.057Z,2.60
2022-09-15T06:21:11.231Z,3.15
2022-09-15T06:23:38.927Z,3.17
2022-09-15T06:26:08.111Z,2.70
2022-09-15T06:28:35.645Z,2.95
2022-09-15T06:31:03.001Z,3.20
2022-09-15T06:33:29.922Z,2.55
2022-09-15T06:35:56.806Z,2.50
2022-09-15T06:38:23.546Z,2.20
2022-09-15T06:40:58.239Z,3.38
2022-09-15T06:43:25.874Z,1.85
2022-09-15T06:45:52.796Z,1.70
2022-09-15T06:48:24.801Z,1.42
2022-09-15T06:50:55.960Z,1.80
2022-09-15T06:53:23.017Z,1.85
2022-09-15T06:55:50.604Z,1.65
2022-09-15T06:58:17.351Z,1.63
2022-09-15T07:00:44.643Z,1.40
2022-09-15T07:03:11.494Z,1.30
2022-09-15T07:05:38.429Z,1.70
2022-09-15T07:08:05.250Z,1.90
2022-09-15T07:10:32.127Z,1.40
2022-09-15T07:13:01.222Z,1.88
2022-09-15T07:15:28.388Z,2.05
2022-09-15T07:17:55.103Z,2.47
2022-09-15T07:20:21.816Z,2.20
2022-09-15T07:22:48.746Z,2.25
2022-09-15T07:25:15.928Z,2.80
2022-09-15T07:27:42.626Z,2.17
2022-09-15T07:30:10.651Z,2.90
2022-09-15T07:32:37.414Z,2.92
2022-09-15T07:35:04.821Z,3.03
2022-09-15T07:37:33.157Z,2.08
2022-09-15T07:40:00.389Z,2.58
2022-09-15T07:42:27.194Z,3.47
2022-09-15T07:44:53.964Z,2.40
2022-09-15T07:47:20.748Z,2.55
2022-09-15T07:49:47.463Z,2.55
2022-09-15T07:52:14.573Z,2.38
2022-09-15T07:54:41.696Z,2.13
2022-09-15T07:57:08.835Z,1.67
2022-09-15T07:59:39.329Z,1.80
2022-09-15T08:02:18.465Z,1.95
2022-09-15T08:04:45.470Z,1.50
2022-09-15T08:07:13.049Z,1.50
2022-09-15T08:09:40.498Z,1.88
2022-09-15T08:12:08.153Z,1.63
2022-09-15T08:14:34.974Z,1.50
2022-09-15T08:17:08.142Z,1.80
2022-09-15T08:19:37.865Z,1.63
2022-09-15T08:22:05.638Z,1.52
2022-09-15T08:24:32.556Z,1.63
2022-09-15T08:26:59.281Z,1.63
2022-09-15T08:29:26.402Z,1.05
2022-09-15T08:31:53.512Z,1.73
2022-09-15T08:34:20.534Z,1.85
2022-09-15T08:36:47.457Z,2.15
2022-09-15T08:39:14.233Z,1.77
2022-09-15T08:41:44.558Z,1.55
2022-09-15T08:44:34.788Z,1.17
2022-09-15T08:47:46.083Z,1.98
2022-09-15T08:50:29.827Z,1.95
2022-09-15T08:53:12.776Z,1.88
2022-09-15T08:55:48.384Z,1.45
2022-09-15T08:58:18.686Z,1.17
2022-09-15T09:00:53.620Z,9.15
2022-09-15T09:03:53.778Z,1.60
2022-09-15T09:06:57.462Z,1.40
2022-09-15T09:09:52.565Z,1.42
2022-09-15T09:12:41.118Z,1.40
2022-09-15T09:15:32.655Z,1.33
2022-09-15T09:18:08.723Z,1.20
2022-09-15T09:21:02.072Z,1.10
2022-09-15T09:23:33.311Z,1.67
2022-09-15T09:26:02.164Z,1.65
2022-09-15T09:28:37.675Z,1.15
2022-09-15T09:31:09.690Z,1.20
2022-09-15T09:33:45.084Z,1.30
2022-09-15T09:36:14.320Z,1.40
2022-09-15T09:38:44.530Z,1.98
2022-09-15T09:41:22.258Z,1.33
2022-09-15T09:43:54.204Z,2.05
2022-09-15T09:46:21.677Z,1.55
2022-09-15T09:49:02.819Z,1.98
2022-09-15T09:51:34.768Z,1.45
2022-09-15T09:54:16.419Z,1.70
2022-09-15T09:56:44.867Z,1.60
2022-09-15T09:59:40.128Z,1.40
2022-09-15T10:02:26.828Z,1.83
2022-09-15T10:04:54.624Z,1.60
2022-09-15T10:07:25.124Z,1.70
2022-09-15T10:09:57.341Z,1.80
2022-09-15T10:12:33.551Z,1.60
2022-09-15T10:15:03.657Z,1.95
2022-09-15T10:17:36.399Z,1.42
2022-09-15T10:20:05.796Z,1.90
2022-09-15T10:22:34.222Z,1.90
2022-09-15T10:25:03.852Z,1.83
2022-09-15T10:27:35.689Z,2.15
2022-09-15T10:30:14.751Z,1.58
2022-09-15T10:32:43.270Z,2.40
2022-09-15T10:35:13.203Z,1.80
2022-09-15T10:37:46.282Z,2.08
2022-09-15T10:40:34.523Z,2.20
2022-09-15T10:43:27.062Z,2.35
2022-09-15T10:46:27.672Z,1.90
2022-09-15T10:49:25.460Z,1.30
2022-09-15T10:51:58.149Z,2.05
2022-09-15T10:54:41.945Z,2.05
2022-09-15T10:57:34.782Z,1.83
2022-09-15T11:00:23.139Z,2.30
2022-09-15T11:03:05.045Z,1.80
2022-09-15T11:05:40.869Z,2.00
2022-09-15T11:08:26.439Z,1.75
2022-09-15T11:11:10.655Z,2.15
2022-09-15T11:14:14.739Z,2.10
2022-09-15T11:17:15.348Z,2.40
2022-09-15T11:20:14.730Z,1.90
2022-09-15T11:22:59.518Z,1.85
2022-09-15T11:25:31.434Z,2.78
2022-09-15T11:28:04.591Z,2.50
2022-09-15T11:30:45.650Z,1.60
2022-09-15T11:33:21.127Z,2.08
2022-09-15T11:35:51.838Z,1.90
2022-09-15T11:38:42.804Z,2.22
2022-09-15T11:41:21.533Z,2.00
2022-09-15T11:43:54.322Z,2.00
2022-09-15T11:46:29.748Z,2.05
2022-09-15T11:49:18.363Z,2.05
2022-09-15T11:51:58.959Z,1.90
2022-09-15T11:54:34.611Z,2.03
2022-09-15T11:57:01.519Z,1.70
2022-09-15T12:00:04.263Z,1.65
2022-09-15T12:02:53.351Z,1.88
2022-09-15T12:05:26.555Z,2.00
2022-09-15T12:08:15.586Z,2.38
2022-09-15T12:10:48.778Z,2.40
2022-09-15T12:13:20.662Z,1.67
2022-09-15T12:15:49.667Z,2.25
2022-09-15T12:18:38.471Z,2.00
2022-09-15T12:21:44.019Z,2.13
2022-09-15T12:24:33.763Z,2.55
2022-09-15T12:27:01.729Z,2.10
2022-09-15T12:29:28.399Z,2.63
2022-09-15T12:32:19.645Z,2.25
2022-09-15T12:34:59.842Z,2.40
2022-09-15T12:37:49.167Z,2.55
2022-09-15T12:40:33.547Z,2.10
2022-09-15T12:43:10.983Z,2.50
2022-09-15T12:45:39.309Z,2.72
2022-09-15T12:48:14.182Z,2.70
2022-09-15T12:50:43.336Z,3.35
2022-09-15T12:53:20.934Z,3.05
2022-09-15T12:55:53.292Z,2.90
2022-09-15T12:58:33.221Z,3.08
2022-09-15T13:01:23.374Z,3.65
2022-09-15T13:03:50.201Z,2.83
2022-09-15T13:06:23.760Z,3.25
2022-09-15T13:09:27.107Z,2.80
2022-09-15T13:11:56.121Z,3.13
2022-09-15T13:14:29.019Z,3.13
2022-09-15T13:17:01.418Z,3.80
2022-09-15T13:19:35.859Z,3.28
2022-09-15T13:22:12.296Z,3.08
2022-09-15T13:24:50.954Z,3.33
2022-09-15T13:27:22.406Z,2.95
2022-09-15T13:29:52.333Z,3.22
2022-09-15T13:32:42.409Z,2.97
2022-09-15T13:35:19.990Z,3.85
2022-09-15T13:38:24.037Z,2.67
2022-09-15T13:41:31.077Z,3.13
2022-09-15T13:44:30.489Z,2.83
2022-09-15T13:47:29.785Z,3.03
2022-09-15T13:50:18.279Z,3.28
2022-09-15T13:53:03.671Z,3.47
2022-09-15T13:55:36.761Z,3.20
2022-09-15T14:00:55.047Z,4.18
2022-09-15T14:03:37.059Z,3.58
2022-09-15T14:06:22.398Z,4.03
2022-09-15T14:08:54.538Z,3.03
2022-09-15T14:11:26.651Z,3.45
2022-09-15T14:13:54.720Z,3.47
2022-09-15T14:16:27.881Z,3.90
2022-09-15T14:18:57.712Z,3.90
2022-09-15T14:21:28.167Z,3.38
2022-09-15T14:24:00.549Z,3.72
2022-09-15T14:26:29.691Z,3.53
2022-09-15T14:28:59.086Z,3.00
2022-09-15T14:31:36.391Z,3.33
2022-09-15T14:34:06.975Z,3.20
2022-09-15T14:36:34.855Z,3.35
2022-09-15T14:39:04.750Z,4.28
2022-09-15T14:41:35.422Z,3.20
2022-09-15T14:44:03.123Z,3.45
2022-09-15T14:46:37.743Z,4.00
2022-09-15T14:49:11.734Z,4.13
2022-09-15T14:51:39.139Z,3.88
2022-09-15T14:54:15.662Z,4.07
2022-09-15T14:56:44.178Z,3.50
2022-09-15T14:59:31.188Z,3.70
2022-09-15T15:02:18.046Z,3.53
2022-09-15T15:04:50.425Z,3.42
2022-09-15T15:07:22.668Z,3.08
2022-09-15T15:10:00.434Z,3.20
2022-09-15T15:12:30.578Z,3.33
2022-09-15T15:15:00.090Z,3.40
2022-09-15T15:17:49.738Z,3.50
2022-09-15T15:20:30.125Z,3.40
2022-09-15T15:23:11.870Z,3.42
2022-09-15T15:25:39.441Z,3.78
2022-09-15T15:28:07.718Z,3.92
2022-09-15T15:30:46.876Z,3.47
2022-09-15T15:33:24.288Z,3.53
2022-09-15T15:36:15.306Z,3.67
2022-09-15T15:38:50.948Z,2.70
2022-09-15T15:41:33.848Z,2.90
2022-09-15T15:44:08.370Z,3.20
2022-09-15T15:46:55.050Z,3.08
2022-09-15T15:49:27.299Z,2.97
2022-09-15T15:51:55.498Z,3.50
2022-09-15T15:54:23.306Z,3.47
2022-09-15T15:56:51.655Z,3.13
2022-09-15T15:59:18.601Z,4.05
2022-09-15T16:01:49.213Z,3.92
2022-09-15T16:04:16.032Z,2.55
2022-09-15T16:06:44.426Z,3.60
2022-09-15T16:09:14.732Z,3.33
2022-09-15T16:11:43.069Z,3.60
2022-09-15T16:14:15.691Z,3.38
2022-09-15T16:16:42.441Z,3.50
2022-09-15T16:19:09.661Z,3.55
2022-09-15T16:21:42.259Z,3.42
2022-09-15T16:24:14.983Z,3.30
2022-09-15T16:26:43.041Z,3.20
2022-09-15T16:29:10.605Z,2.80
2022-09-15T16:31:38.368Z,3.33
2022-09-15T16:34:05.247Z,2.90
2022-09-15T16:36:35.005Z,2.60
2022-09-15T16:39:01.741Z,2.90
2022-09-15T16:41:28.953Z,2.47
2022-09-15T16:43:58.576Z,2.75
2022-09-15T16:46:25.475Z,3.08
2022-09-15T16:48:52.285Z,2.92
2022-09-15T16:51:29.764Z,2.70
2022-09-15T16:53:58.162Z,2.78
2022-09-15T16:56:25.499Z,2.55
2022-09-15T16:58:58.860Z,2.90
2022-09-15T17:01:27.439Z,3.20
2022-09-15T17:03:54.318Z,2.13
2022-09-15T17:06:22.120Z,2.47
2022-09-15T17:08:49.472Z,2.25
2022-09-15T17:11:18.766Z,2.97
2022-09-15T17:13:46.140Z,2.22
2022-09-15T17:16:15.366Z,3.08
2022-09-15T17:18:42.155Z,2.85
2022-09-15T17:21:14.806Z,2.72
2022-09-15T17:23:44.893Z,2.13
2022-09-15T17:26:28.793Z,2.03
2022-09-15T17:28:58.144Z,2.60
2022-09-15T17:31:25.238Z,2.47
2022-09-15T17:33:53.115Z,2.28
2022-09-15T17:36:20.288Z,3.33
2022-09-15T17:38:48.949Z,2.55
2022-09-15T17:41:18.677Z,2.80
2022-09-15T17:43:46.095Z,2.72
2022-09-15T17:46:13.508Z,2.63
2022-09-15T17:48:40.399Z,2.95
2022-09-15T17:51:09.627Z,2.83
2022-09-15T17:53:36.432Z,2.75
2022-09-15T17:56:03.594Z,2.45
2022-09-15T17:58:31.804Z,2.55
2022-09-15T18:00:59.180Z,2.90
2022-09-15T18:03:34.735Z,2.95
2022-09-15T18:06:05.329Z,2.15
2022-09-15T18:08:33.387Z,2.15
2022-09-15T18:11:05.935Z,2.58
2022-09-15T18:13:33.510Z,2.30
2022-09-15T18:16:10.123Z,2.65
2022-09-15T18:18:37.980Z,2.22
2022-09-15T18:21:08.860Z,2.63
2022-09-15T18:23:37.446Z,2.28
2022-09-15T18:26:04.195Z,2.83
2022-09-15T18:28:30.892Z,2.38
2022-09-15T18:30:57.644Z,2.88
2022-09-15T18:33:25.544Z,2.55
2022-09-15T18:35:54.979Z,2.67
2022-09-15T18:38:25.059Z,2.35
2022-09-15T18:40:56.426Z,3.30
2022-09-15T18:43:28.103Z,2.08
2022-09-15T18:45:59.590Z,2.28
2022-09-15T18:48:26.738Z,2.40
2022-09-15T18:50:54.115Z,1.73
2022-09-15T18:53:21.148Z,2.10
2022-09-15T18:55:47.852Z,1.55
2022-09-15T18:58:14.625Z,1.88
2022-09-15T19:00:41.949Z,2.45
2022-09-15T19:03:13.968Z,2.28
2022-09-15T19:05:41.549Z,2.30
2022-09-15T19:08:09.180Z,3.40
2022-09-15T19:10:36.013Z,2.47
2022-09-15T19:13:02.805Z,1.77
2022-09-15T19:15:33.681Z,1.75
2022-09-15T19:18:00.544Z,2.08
2022-09-15T19:20:27.421Z,2.10
2022-09-15T19:22:54.519Z,2.35
2022-09-15T19:25:21.287Z,1.85
2022-09-15T19:27:48.582Z,2.30
2022-09-15T19:30:15.457Z,2.20
2022-09-15T19:32:42.629Z,1.98
2022-09-15T19:35:11.272Z,2.35
2022-09-15T19:37:39.854Z,1.73
2022-09-15T19:40:10.434Z,1.67
2022-09-15T19:42:38.743Z,1.70
2022-09-15T19:45:06.798Z,1.77
2022-09-15T19:47:33.775Z,1.63
2022-09-15T19:50:00.537Z,1.40
2022-09-15T19:52:28.270Z,2.00
2022-09-15T19:54:55.157Z,5.60
2022-09-15T19:57:22.721Z,1.90
2022-09-15T19:59:49.863Z,1.42
2022-09-15T20:02:17.260Z,1.40
2022-09-15T20:04:44.808Z,1.63
2022-09-15T20:07:12.557Z,1.13
2022-09-15T20:09:39.380Z,0.98
2022-09-15T20:12:07.134Z,1.17
2022-09-15T20:14:34.446Z,1.60
2022-09-15T20:17:01.825Z,1.30
2022-09-15T20:19:30.125Z,1.73
2022-09-15T20:21:56.915Z,1.85
2022-09-15T20:24:24.487Z,1.45
2022-09-15T20:26:52.735Z,1.85
2022-09-15T20:29:20.163Z,2.00
2022-09-15T20:31:47.631Z,1.75
2022-09-15T20:34:15.367Z,1.55
2022-09-15T20:36:43.501Z,1.35
2022-09-15T20:39:13.582Z,1.45
2022-09-15T20:41:47.233Z,0.95
2022-09-15T20:44:15.113Z,1.08
2022-09-15T20:46:42.785Z,1.20
2022-09-15T20:49:11.341Z,1.20
2022-09-15T20:51:38.213Z,1.02
2022-09-15T20:54:05.693Z,1.17
2022-09-15T20:56:35.385Z,1.20
2022-09-15T20:59:03.989Z,1.40
2022-09-15T21:01:37.446Z,0.70
2022-09-15T21:04:05.534Z,0.77
2022-09-15T21:06:33.065Z,0.90
2022-09-15T21:09:00.282Z,0.75
2022-09-15T21:11:28.777Z,0.52
2022-09-15T21:13:56.983Z,0.60
2022-09-15T21:16:26.523Z,0.73
2022-09-15T21:18:53.613Z,0.57
2022-09-15T21:21:23.314Z,0.63
2022-09-15T21:24:03.632Z,0.52
2022-09-15T21:27:00.308Z,0.80
2022-09-15T21:29:28.523Z,0.65
2022-09-15T21:31:55.843Z,0.52
2022-09-15T21:34:22.753Z,0.30
2022-09-15T21:36:51.737Z,0.38
2022-09-15T21:39:18.579Z,0.30
2022-09-15T21:41:45.416Z,0.50
2022-09-15T21:44:12.644Z,0.70
2022-09-15T21:46:39.379Z,0.13
2022-09-15T21:49:06.143Z,0.25
2022-09-15T21:51:32.919Z,0.50
2022-09-15T21:54:00.394Z,0.82
2022-09-15T21:56:29.093Z,0.20
2022-09-15T21:58:56.389Z,0.43
2022-09-15T22:01:26.470Z,0.20
2022-09-15T22:04:01.767Z,0.30
2022-09-15T22:06:31.930Z,0.30
2022-09-15T22:09:05.643Z,0.20
2022-09-15T22:11:32.675Z,0.15
2022-09-15T22:14:01.736Z,0.28
2022-09-15T22:16:28.576Z,0.28
2022-09-15T22:18:56.397Z,0.25
2022-09-15T22:21:26.155Z,0.30
2022-09-15T22:23:59.042Z,0.32
2022-09-15T22:26:28.125Z,0.38
2022-09-15T22:28:55.937Z,0.28
2022-09-15T22:31:24.532Z,0.30
2022-09-15T22:33:52.269Z,0.40
2022-09-15T22:36:29.238Z,0.10
2022-09-15T22:39:03.498Z,0.40
2022-09-15T22:41:32.026Z,0.20
2022-09-15T22:43:58.887Z,0.22
2022-09-15T22:46:25.847Z,0.43
2022-09-15T22:48:52.626Z,0.32
2022-09-15T22:51:19.762Z,0.20
2022-09-15T22:53:47.023Z,0.38
2022-09-15T22:56:21.458Z,0.10
2022-09-15T22:58:49.509Z,0.30
2022-09-15T23:01:19.854Z,0.70
2022-09-15T23:03:57.744Z,0.35
2022-09-15T23:06:27.136Z,0.40
2022-09-15T23:08:59.520Z,0.38
2022-09-15T23:11:28.691Z,0.30
2022-09-15T23:13:55.944Z,0.30
2022-09-15T23:16:24.288Z,0.20
2022-09-15T23:18:51.924Z,0.47
2022-09-15T23:21:19.404Z,0.13
2022-09-15T23:23:47.637Z,0.38
2022-09-15T23:26:16.004Z,0.40
2022-09-15T23:28:43.117Z,0.45
2022-09-15T23:31:12.401Z,0.20
2022-09-15T23:33:40.044Z,0.30
2022-09-15T23:36:09.411Z,0.20
2022-09-15T23:38:40.743Z,0.20
2022-09-15T23:41:08.082Z,0.30
2022-09-15T23:43:35.289Z,0.30
2022-09-15T23:46:03.161Z,0.30
2022-09-15T23:48:33.828Z,0.30
2022-09-15T23:51:01.396Z,0.28
2022-09-15T23:53:28.407Z,0.30
2022-09-15T23:55:55.248Z,0.10
2022-09-15T23:58:22.016Z,0.30
